Time;durP1;ratioP1;P1;durP2;ratioP2;P2;SDS_P1;SDS_P2;PMS_P1;PMS_P2;Temp;Humidity;BMP_temperature;BMP_pressure;BME280_temperature;BME280_humidity;BME280_pressure;Samples;Min_cycle;Max_cycle;Signal;HPM_P1;HPM_P2
2021/04/12 00:01:18;;;;;;;0.00;0.00;;;;;;;;;;5071834;28;20243;-60
2021/04/12 00:03:45;;;;;;;0.00;0.00;;;;;;;;;;5076524;28;20294;-59
2021/04/12 00:06:17;;;;;;;0.00;0.00;;;;;;;;;;5079688;28;20189;-60
2021/04/12 00:08:49;;;;;;;0.63;0.17;;;;;;;;;;5073910;28;20241;-59
2021/04/12 00:11:28;;;;;;;1.70;1.70;;;;;;;;;;5073684;28;20185;-60
2021/04/12 00:13:58;;;;;;;0.00;0.00;;;;;;;;;;5074605;28;20209;-61
2021/04/12 00:16:28;;;;;;;1.47;0.50;;;;;;;;;;5079856;28;20205;-60
2021/04/12 00:18:57;;;;;;;0.20;0.20;;;;;;;;;;5077759;28;20186;-60
2021/04/12 00:21:43;;;;;;;0.00;0.00;;;;;;;;;;5073044;28;20270;-61
2021/04/12 00:24:28;;;;;;;1.17;1.07;;;;;;;;;;5071874;28;20902;-61
2021/04/12 00:27:15;;;;;;;1.07;0.93;;;;;;;;;;5073640;28;20278;-61
2021/04/12 00:29:57;;;;;;;0.00;0.00;;;;;;;;;;5074246;28;20339;-60
2021/04/12 00:32:28;;;;;;;0.07;0.07;;;;;;;;;;5067419;28;20984;-60
2021/04/12 00:35:11;;;;;;;0.00;0.00;;;;;;;;;;5074533;28;20627;-60
2021/04/12 00:37:50;;;;;;;0.00;0.00;;;;;;;;;;5071693;28;20185;-59
2021/04/12 00:40:25;;;;;;;0.00;0.00;;;;;;;;;;5075686;28;20681;-60
2021/04/12 00:43:04;;;;;;;0.20;0.20;;;;;;;;;;5073523;28;20176;-60
2021/04/12 00:45:42;;;;;;;0.00;0.00;;;;;;;;;;5072611;28;20222;-59
2021/04/12 00:48:27;;;;;;;0.13;0.13;;;;;;;;;;5074221;28;20547;-60
2021/04/12 00:51:14;;;;;;;0.10;0.10;;;;;;;;;;5075915;28;20252;-59
2021/04/12 00:53:59;;;;;;;0.20;0.17;;;;;;;;;;5075588;28;20185;-59
2021/04/12 00:56:37;;;;;;;0.00;0.00;;;;;;;;;;5079331;28;20263;-60
2021/04/12 00:59:06;;;;;;;1.33;1.10;;;;;;;;;;5076142;28;20216;-60
2021/04/12 01:01:39;;;;;;;0.00;0.00;;;;;;;;;;5072583;28;20631;-60
2021/04/12 01:04:14;;;;;;;0.00;0.00;;;;;;;;;;5074779;28;20255;-60
2021/04/12 01:06:55;;;;;;;2.40;1.50;;;;;;;;;;5078235;28;20194;-60
2021/04/12 01:09:40;;;;;;;0.90;0.87;;;;;;;;;;5078851;28;20895;-60
2021/04/12 01:12:09;;;;;;;0.50;0.50;;;;;;;;;;5079309;28;20175;-59
2021/04/12 01:14:55;;;;;;;0.63;0.63;;;;;;;;;;5080183;28;20667;-59
2021/04/12 01:17:40;;;;;;;0.33;0.33;;;;;;;;;;5074346;28;20208;-61
2021/04/12 01:20:16;;;;;;;0.40;0.40;;;;;;;;;;5073153;28;20198;-60
2021/04/12 01:23:01;;;;;;;0.00;0.00;;;;;;;;;;5074821;28;20197;-59
2021/04/12 01:25:30;;;;;;;0.00;0.00;;;;;;;;;;5074674;28;20225;-60
2021/04/12 01:28:21;;;;;;;0.30;0.10;;;;;;;;;;5077459;28;20280;-59
2021/04/12 01:31:06;;;;;;;1.23;1.23;;;;;;;;;;5076637;28;20332;-60
2021/04/12 01:33:51;;;;;;;0.00;0.00;;;;;;;;;;5076648;28;20296;-59
2021/04/12 01:36:49;;;;;;;0.00;0.00;;;;;;;;;;5072497;28;20342;-60
2021/04/12 01:39:16;;;;;;;0.27;0.27;;;;;;;;;;5033596;28;20198;-60
2021/04/12 01:42:05;;;;;;;0.00;0.00;;;;;;;;;;5073691;28;20239;-60
2021/04/12 01:44:51;;;;;;;0.00;0.00;;;;;;;;;;5074910;28;20204;-60
2021/04/12 01:47:36;;;;;;;0.03;0.03;;;;;;;;;;5074019;28;20973;-59
2021/04/12 01:50:19;;;;;;;0.40;0.40;;;;;;;;;;5072980;28;20267;-60
2021/04/12 01:52:57;;;;;;;1.23;1.10;;;;;;;;;;5075985;28;20175;-59
2021/04/12 01:55:40;;;;;;;0.43;0.43;;;;;;;;;;5073320;28;20169;-59
2021/04/12 01:58:13;;;;;;;0.90;0.33;;;;;;;;;;5074409;28;20266;-59
2021/04/12 02:00:42;;;;;;;0.03;0.03;;;;;;;;;;5076284;28;20572;-59
2021/04/12 02:03:17;;;;;;;0.00;0.00;;;;;;;;;;5076136;28;20215;-59
2021/04/12 02:06:02;;;;;;;1.83;1.67;;;;;;;;;;5076738;28;20205;-59
2021/04/12 02:08:35;;;;;;;0.00;0.00;;;;;;;;;;5075452;28;21048;-59
2021/04/12 02:11:10;;;;;;;0.43;0.40;;;;;;;;;;5074210;28;20220;-59
2021/04/12 02:13:55;;;;;;;4.00;0.77;;;;;;;;;;5072880;28;20658;-59
2021/04/12 02:16:26;;;;;;;0.13;0.13;;;;;;;;;;5075070;28;20188;-59
2021/04/12 02:18:52;;;;;;;0.33;0.33;;;;;;;;;;5070817;28;20196;-59
2021/04/12 02:21:33;;;;;;;0.47;0.47;;;;;;;;;;5075340;28;20185;-60
2021/04/12 02:24:03;;;;;;;2.37;0.53;;;;;;;;;;5075495;28;20246;-59
2021/04/12 02:26:39;;;;;;;2.33;1.20;;;;;;;;;;5077387;28;20369;-59
2021/04/12 02:29:24;;;;;;;0.77;0.77;;;;;;;;;;5069288;28;20236;-59
2021/04/12 02:32:10;;;;;;;0.40;0.40;;;;;;;;;;5070370;28;20178;-60
2021/04/12 02:34:57;;;;;;;0.47;0.47;;;;;;;;;;5073662;28;20178;-59
2021/04/12 02:37:35;;;;;;;0.00;0.00;;;;;;;;;;5071363;28;21097;-60
2021/04/12 02:40:09;;;;;;;0.00;0.00;;;;;;;;;;5072935;28;20828;-59
2021/04/12 02:42:38;;;;;;;0.00;0.00;;;;;;;;;;5071333;28;20174;-59
2021/04/12 02:45:09;;;;;;;0.10;0.10;;;;;;;;;;5075388;28;20260;-59
2021/04/12 02:47:59;;;;;;;0.57;0.47;;;;;;;;;;5073958;28;21152;-62
2021/04/12 02:50:32;;;;;;;0.00;0.00;;;;;;;;;;5032621;28;20254;-63
2021/04/12 02:53:11;;;;;;;0.10;0.10;;;;;;;;;;5075897;28;20727;-63
2021/04/12 02:55:47;;;;;;;0.10;0.10;;;;;;;;;;5080689;28;20301;-64
2021/04/12 02:58:26;;;;;;;0.00;0.00;;;;;;;;;;5075371;28;21232;-63
2021/04/12 03:00:58;;;;;;;0.00;0.00;;;;;;;;;;5074680;28;20890;-64
2021/04/12 03:03:33;;;;;;;0.00;0.00;;;;;;;;;;5073821;28;20189;-64
2021/04/12 03:06:05;;;;;;;0.57;0.50;;;;;;;;;;5074055;28;20875;-64
2021/04/12 03:08:47;;;;;;;0.27;0.27;;;;;;;;;;5074150;28;20182;-64
2021/04/12 03:11:23;;;;;;;0.40;0.40;;;;;;;;;;5069527;28;20194;-63
2021/04/12 03:14:07;;;;;;;0.10;0.10;;;;;;;;;;5074664;28;20174;-64
2021/04/12 03:16:57;;;;;;;0.90;0.90;;;;;;;;;;5072098;28;20186;-65
2021/04/12 03:19:24;;;;;;;0.07;0.07;;;;;;;;;;5071841;28;20194;-64
2021/04/12 03:22:13;;;;;;;1.50;1.40;;;;;;;;;;5072186;28;20221;-64
2021/04/12 03:24:47;;;;;;;0.03;0.03;;;;;;;;;;5075149;28;20243;-64
2021/04/12 03:27:22;;;;;;;0.20;0.20;;;;;;;;;;5077117;28;20186;-64
2021/04/12 03:29:54;;;;;;;0.20;0.20;;;;;;;;;;5076505;28;20662;-64
2021/04/12 03:32:27;;;;;;;0.03;0.03;;;;;;;;;;5070294;28;20185;-64
2021/04/12 03:34:56;;;;;;;0.00;0.00;;;;;;;;;;5069058;28;20763;-64
2021/04/12 03:37:32;;;;;;;0.00;0.00;;;;;;;;;;5072035;28;20616;-64
2021/04/12 03:40:17;;;;;;;0.10;0.07;;;;;;;;;;5067109;28;20875;-64
2021/04/12 03:42:46;;;;;;;1.80;1.10;;;;;;;;;;5068263;28;20968;-64
2021/04/12 03:45:30;;;;;;;0.20;0.20;;;;;;;;;;5067977;28;20927;-64
2021/04/12 03:48:04;;;;;;;0.00;0.00;;;;;;;;;;5070172;28;20186;-64
2021/04/12 03:50:50;;;;;;;0.00;0.00;;;;;;;;;;5074523;28;20646;-64
2021/04/12 03:53:34;;;;;;;5.10;0.70;;;;;;;;;;5071929;28;20174;-65
2021/04/12 03:56:07;;;;;;;0.30;0.30;;;;;;;;;;5071083;28;20528;-64
2021/04/12 03:58:45;;;;;;;1.10;1.10;;;;;;;;;;5069282;28;20182;-64
2021/04/12 04:01:31;;;;;;;0.00;0.00;;;;;;;;;;5066047;28;20185;-64
2021/04/12 04:04:16;;;;;;;0.57;0.57;;;;;;;;;;5068199;28;20197;-64
2021/04/12 04:06:52;;;;;;;0.00;0.00;;;;;;;;;;5066167;28;20185;-64
2021/04/12 12:57:15;;;;;;;0.20;0.20;;;;;;;;;;5066970;28;21105;-49
2021/04/12 12:59:46;;;;;;;0.10;0.10;;;;;;;;;;5050551;28;20186;-51
2021/04/12 13:02:17;;;;;;;0.00;0.00;;;;;;;;;;5054846;28;20200;-48
2021/04/12 13:04:52;;;;;;;0.10;0.10;;;;;;;;;;5053518;28;20187;-55
2021/04/12 13:07:21;;;;;;;0.20;0.17;;;;;;;;;;5054968;28;20447;-49
2021/04/12 13:09:55;;;;;;;0.50;0.50;;;;;;;;;;5053468;28;20327;-50
2021/04/12 13:12:27;;;;;;;1.07;0.40;;;;;;;;;;5054778;28;20187;-55
2021/04/12 13:14:56;;;;;;;0.20;0.20;;;;;;;;;;5054048;28;20222;-48
2021/04/12 13:17:22;;;;;;;1.90;0.70;;;;;;;;;;5051522;28;20191;-53
2021/04/12 13:19:50;;;;;;;1.23;0.60;;;;;;;;;;5052219;28;20183;-51
2021/04/12 13:22:24;;;;;;;0.53;0.53;;;;;;;;;;5054469;28;20195;-51
2021/04/12 13:24:50;;;;;;;0.67;0.30;;;;;;;;;;5053490;28;20187;-51
2021/04/12 13:27:23;;;;;;;0.00;0.00;;;;;;;;;;5040501;28;21241;-52
2021/04/12 13:29:58;;;;;;;0.30;0.30;;;;;;;;;;5022029;28;21034;-56
2021/04/12 13:32:24;;;;;;;0.53;0.53;;;;;;;;;;5046976;28;20209;-51
2021/04/12 13:34:53;;;;;;;0.00;0.00;;;;;;;;;;5051403;28;20205;-51
2021/04/12 13:37:24;;;;;;;0.00;0.00;;;;;;;;;;5052842;28;20249;-51
2021/04/12 13:40:11;;;;;;;1.00;0.20;;;;;;;;;;5053298;28;20191;-52
2021/04/12 13:42:47;;;;;;;0.30;0.20;;;;;;;;;;5048836;28;20205;-51
2021/04/12 13:45:14;;;;;;;0.13;0.13;;;;;;;;;;5052285;28;20967;-50
2021/04/12 13:47:44;;;;;;;0.10;0.10;;;;;;;;;;5053673;28;20182;-53
2021/04/12 13:50:22;;;;;;;0.20;0.20;;;;;;;;;;5050795;28;20194;-53
2021/04/12 13:53:14;;;;;;;0.47;0.40;;;;;;;;;;5048460;28;20214;-53
2021/04/12 13:55:49;;;;;;;1.50;0.80;;;;;;;;;;5046890;28;20733;-53
2021/04/12 13:58:22;;;;;;;0.50;0.50;;;;;;;;;;5056757;28;20183;-51
2021/04/12 14:00:52;;;;;;;0.77;0.77;;;;;;;;;;5053289;28;20306;-52
2021/04/12 14:03:30;;;;;;;1.00;0.37;;;;;;;;;;5053154;28;20187;-55
2021/04/12 14:06:31;;;;;;;0.90;0.67;;;;;;;;;;5053069;28;20191;-51
2021/04/12 14:09:01;;;;;;;0.10;0.03;;;;;;;;;;4979662;28;20181;-54
2021/04/12 14:11:30;;;;;;;0.17;0.17;;;;;;;;;;5034971;28;20196;-54
2021/04/12 14:14:29;;;;;;;0.97;0.87;;;;;;;;;;5041145;28;20199;-53
2021/04/12 14:16:58;;;;;;;0.17;0.17;;;;;;;;;;5024543;28;20624;-54
2021/04/12 14:19:31;;;;;;;2.63;0.53;;;;;;;;;;5039745;28;20196;-54
2021/04/12 14:22:21;;;;;;;0.17;0.17;;;;;;;;;;5040182;28;20226;-51
2021/04/12 14:24:51;;;;;;;0.57;0.57;;;;;;;;;;5036608;28;20219;-52
2021/04/12 14:27:20;;;;;;;0.27;0.13;;;;;;;;;;5041708;28;20646;-48
2021/04/12 14:29:56;;;;;;;0.10;0.10;;;;;;;;;;5039210;28;20640;-55
2021/04/12 14:32:24;;;;;;;0.10;0.10;;;;;;;;;;5039290;28;20228;-49
2021/04/12 14:35:10;;;;;;;2.40;0.20;;;;;;;;;;5039504;28;20956;-55
2021/04/12 14:37:38;;;;;;;0.30;0.30;;;;;;;;;;5038093;28;20210;-58
2021/04/12 14:40:23;;;;;;;0.73;0.30;;;;;;;;;;5036877;28;20281;-49
2021/04/12 14:42:54;;;;;;;0.30;0.30;;;;;;;;;;5032363;28;20182;-52
2021/04/12 14:45:24;;;;;;;0.20;0.20;;;;;;;;;;5038155;28;20197;-54
2021/04/12 14:47:56;;;;;;;0.00;0.00;;;;;;;;;;5037208;28;20191;-55
2021/04/12 14:50:26;;;;;;;0.10;0.10;;;;;;;;;;5033114;28;20314;-53
2021/04/12 14:53:01;;;;;;;0.67;0.20;;;;;;;;;;5038267;28;20202;-54
2021/04/12 14:55:33;;;;;;;0.40;0.23;;;;;;;;;;5038831;28;20235;-52
2021/04/12 14:58:26;;;;;;;0.10;0.10;;;;;;;;;;5039468;28;20191;-54
2021/04/12 15:00:54;;;;;;;0.20;0.20;;;;;;;;;;5031733;28;20188;-54
2021/04/12 15:03:30;;;;;;;0.63;0.53;;;;;;;;;;5039022;28;20193;-55
2021/04/12 15:06:01;;;;;;;0.00;0.00;;;;;;;;;;5038158;28;20186;-55
2021/04/12 15:08:36;;;;;;;0.87;0.60;;;;;;;;;;5036059;28;20194;-50
2021/04/12 15:11:26;;;;;;;0.23;0.23;;;;;;;;;;5039170;28;20624;-51
2021/04/12 15:14:01;;;;;;;0.67;0.27;;;;;;;;;;5031151;28;20212;-50
2021/04/12 15:16:37;;;;;;;0.20;0.20;;;;;;;;;;5027809;28;20373;-53
2021/04/12 15:19:12;;;;;;;0.20;0.20;;;;;;;;;;5032445;28;20836;-54
2021/04/12 15:21:44;;;;;;;0.87;0.80;;;;;;;;;;5038110;28;20178;-50
2021/04/12 15:24:14;;;;;;;0.57;0.10;;;;;;;;;;5038202;28;20706;-55
2021/04/12 15:26:49;;;;;;;0.20;0.20;;;;;;;;;;5037861;28;20183;-54
2021/04/12 15:29:21;;;;;;;0.00;0.00;;;;;;;;;;5034992;28;20187;-55
2021/04/12 15:31:49;;;;;;;1.30;0.90;;;;;;;;;;5037539;28;20729;-52
2021/04/12 15:34:31;;;;;;;1.43;0.87;;;;;;;;;;5039665;28;20429;-55
2021/04/12 15:36:58;;;;;;;0.60;0.40;;;;;;;;;;5034049;28;20226;-53
2021/04/12 15:39:24;;;;;;;0.27;0.20;;;;;;;;;;5037436;28;20465;-51
2021/04/12 15:41:53;;;;;;;0.00;0.00;;;;;;;;;;5036597;28;20187;-52
2021/04/12 15:44:39;;;;;;;1.47;0.60;;;;;;;;;;5038641;28;20805;-54
2021/04/12 15:47:09;;;;;;;3.63;1.03;;;;;;;;;;5038300;28;20265;-52
2021/04/12 15:49:37;;;;;;;0.77;0.67;;;;;;;;;;5045994;28;20655;-52
2021/04/12 15:52:03;;;;;;;0.20;0.20;;;;;;;;;;5033646;28;20193;-55
2021/04/12 15:54:33;;;;;;;0.10;0.10;;;;;;;;;;5036547;28;20195;-54
2021/04/12 15:57:00;;;;;;;5.60;0.30;;;;;;;;;;5038535;28;20691;-53
2021/04/12 15:59:29;;;;;;;0.00;0.00;;;;;;;;;;5039856;28;20425;-53
2021/04/12 16:01:59;;;;;;;0.30;0.30;;;;;;;;;;5037974;28;20198;-50
2021/04/12 16:04:29;;;;;;;0.00;0.00;;;;;;;;;;5037504;28;20284;-49
2021/04/12 16:07:11;;;;;;;0.10;0.10;;;;;;;;;;5040355;28;20192;-51
2021/04/12 16:09:39;;;;;;;1.17;0.20;;;;;;;;;;5031065;28;20274;-54
2021/04/12 16:12:10;;;;;;;2.63;0.87;;;;;;;;;;5030681;28;20624;-57
2021/04/12 16:14:42;;;;;;;0.23;0.23;;;;;;;;;;5036844;28;20335;-54
2021/04/12 16:17:16;;;;;;;0.30;0.30;;;;;;;;;;5039022;28;20197;-53
2021/04/12 16:19:47;;;;;;;0.10;0.10;;;;;;;;;;5030007;28;20198;-52
2021/04/12 16:22:17;;;;;;;5.40;0.33;;;;;;;;;;5037833;28;20724;-54
2021/04/12 16:25:02;;;;;;;0.67;0.67;;;;;;;;;;5037987;28;20195;-54
2021/04/12 16:27:28;;;;;;;0.00;0.00;;;;;;;;;;5033210;28;20182;-52
2021/04/12 16:30:07;;;;;;;0.33;0.33;;;;;;;;;;5047775;28;20354;-54
2021/04/12 16:32:43;;;;;;;0.00;0.00;;;;;;;;;;5027919;28;20187;-55
2021/04/12 16:35:15;;;;;;;0.30;0.30;;;;;;;;;;5032528;28;20202;-52
2021/04/12 16:37:47;;;;;;;2.53;1.27;;;;;;;;;;5031455;28;20199;-53
2021/04/12 16:40:18;;;;;;;0.30;0.30;;;;;;;;;;5040083;28;20286;-52
2021/04/12 16:42:44;;;;;;;0.13;0.13;;;;;;;;;;5039433;28;20305;-52
2021/04/12 16:45:23;;;;;;;1.00;0.93;;;;;;;;;;5036893;28;20756;-52
2021/04/12 16:47:52;;;;;;;0.00;0.00;;;;;;;;;;5030186;28;20191;-55
2021/04/12 16:50:24;;;;;;;0.50;0.30;;;;;;;;;;5035558;28;20261;-54
2021/04/12 16:52:53;;;;;;;3.13;1.50;;;;;;;;;;5037700;28;20221;-52
2021/04/12 16:55:23;;;;;;;0.60;0.50;;;;;;;;;;5035914;28;20241;-51
2021/04/12 16:57:52;;;;;;;0.80;0.50;;;;;;;;;;5037478;28;20191;-54
2021/04/12 17:00:40;;;;;;;0.00;0.00;;;;;;;;;;5038283;28;20190;-48
2021/04/12 17:03:25;;;;;;;0.10;0.10;;;;;;;;;;5031890;28;20894;-52
2021/04/12 17:05:58;;;;;;;0.00;0.00;;;;;;;;;;5034490;28;20297;-49
2021/04/12 17:08:35;;;;;;;1.20;1.07;;;;;;;;;;5034837;28;20187;-54
2021/04/12 17:11:02;;;;;;;0.00;0.00;;;;;;;;;;5031305;28;21916;-54
2021/04/12 17:13:31;;;;;;;0.10;0.10;;;;;;;;;;5032654;28;20188;-52
2021/04/12 17:16:01;;;;;;;0.00;0.00;;;;;;;;;;5030391;28;20805;-56
2021/04/12 17:18:30;;;;;;;0.20;0.20;;;;;;;;;;5033883;28;20199;-53
2021/04/12 17:21:03;;;;;;;0.10;0.10;;;;;;;;;;5030273;28;20192;-55
2021/04/12 17:23:34;;;;;;;0.03;0.03;;;;;;;;;;5036685;28;20191;-53
2021/04/12 17:26:05;;;;;;;0.40;0.40;;;;;;;;;;5039566;28;20202;-54
2021/04/12 17:28:50;;;;;;;0.57;0.57;;;;;;;;;;5036628;28;20195;-55
2021/04/12 17:31:18;;;;;;;4.47;0.53;;;;;;;;;;5034983;28;20267;-54
2021/04/12 17:33:56;;;;;;;25.27;0.87;;;;;;;;;;5033569;28;20281;-53
2021/04/12 17:36:28;;;;;;;0.20;0.20;;;;;;;;;;5035968;28;20222;-54
2021/04/12 17:38:56;;;;;;;0.57;0.57;;;;;;;;;;5037130;28;20191;-55
2021/04/12 17:41:32;;;;;;;0.20;0.10;;;;;;;;;;5035884;28;20191;-55
2021/04/12 17:44:02;;;;;;;0.13;0.13;;;;;;;;;;5039961;28;20199;-54
2021/04/12 17:46:35;;;;;;;8.83;1.27;;;;;;;;;;5040796;28;20192;-53
2021/04/12 17:49:04;;;;;;;0.00;0.00;;;;;;;;;;5040538;28;20191;-53
2021/04/12 17:51:47;;;;;;;0.70;0.40;;;;;;;;;;5033822;28;20290;-53
2021/04/12 17:54:19;;;;;;;0.10;0.10;;;;;;;;;;5038535;28;20199;-53
2021/04/12 17:56:47;;;;;;;0.70;0.57;;;;;;;;;;5038337;28;20226;-51
2021/04/12 17:59:17;;;;;;;1.20;0.33;;;;;;;;;;5040765;28;20199;-55
2021/04/12 18:01:48;;;;;;;0.00;0.00;;;;;;;;;;5040212;28;20293;-54
2021/04/12 18:04:34;;;;;;;0.57;0.43;;;;;;;;;;5033490;28;20513;-55
2021/04/12 18:07:09;;;;;;;0.53;0.53;;;;;;;;;;5038326;28;20191;-54
2021/04/12 18:09:37;;;;;;;4.60;0.40;;;;;;;;;;5038623;28;20679;-52
2021/04/12 18:12:04;;;;;;;0.30;0.30;;;;;;;;;;5038996;28;20348;-54
2021/04/12 18:14:54;;;;;;;0.10;0.10;;;;;;;;;;5037603;28;20420;-53
2021/04/12 18:17:23;;;;;;;0.30;0.30;;;;;;;;;;5030257;28;20895;-51
2021/04/12 18:19:53;;;;;;;0.40;0.40;;;;;;;;;;5037349;28;20217;-55
2021/04/12 18:22:20;;;;;;;0.60;0.10;;;;;;;;;;5035249;28;20336;-55
2021/04/12 18:24:46;;;;;;;0.00;0.00;;;;;;;;;;5037854;28;20203;-52
2021/04/12 18:27:16;;;;;;;0.33;0.33;;;;;;;;;;5033860;28;20623;-53
2021/04/12 18:29:56;;;;;;;0.30;0.30;;;;;;;;;;5035478;28;20564;-52
2021/04/12 18:32:28;;;;;;;14.63;0.60;;;;;;;;;;5037663;28;20202;-51
2021/04/12 18:35:02;;;;;;;0.00;0.00;;;;;;;;;;5032884;28;20184;-55
2021/04/12 18:37:35;;;;;;;0.40;0.40;;;;;;;;;;5039965;28;20179;-53
2021/04/12 18:40:05;;;;;;;0.37;0.37;;;;;;;;;;5037936;28;20222;-52
2021/04/12 18:42:32;;;;;;;6.63;1.73;;;;;;;;;;5043966;28;20223;-55
2021/04/12 18:45:10;;;;;;;0.43;0.43;;;;;;;;;;5047245;28;20176;-55
2021/04/12 18:47:55;;;;;;;0.10;0.10;;;;;;;;;;5038455;28;20600;-52
2021/04/12 18:50:27;;;;;;;0.30;0.30;;;;;;;;;;5037087;28;20208;-52
2021/04/12 18:53:09;;;;;;;0.80;0.80;;;;;;;;;;5032528;28;21395;-51
2021/04/12 18:55:39;;;;;;;6.50;0.43;;;;;;;;;;5030353;28;20598;-51
2021/04/12 18:58:17;;;;;;;0.10;0.10;;;;;;;;;;5031130;28;20187;-50
2021/04/12 19:00:50;;;;;;;0.00;0.00;;;;;;;;;;5037703;28;20191;-54
2021/04/12 19:03:35;;;;;;;0.50;0.50;;;;;;;;;;5031669;28;20199;-51
2021/04/12 19:06:05;;;;;;;0.37;0.30;;;;;;;;;;5038592;28;20268;-49
2021/04/12 19:08:48;;;;;;;0.20;0.20;;;;;;;;;;5038524;28;20187;-53
2021/04/12 19:11:30;;;;;;;0.30;0.30;;;;;;;;;;5033973;28;20407;-51
2021/04/12 19:13:56;;;;;;;0.10;0.10;;;;;;;;;;5032188;28;20682;-51
2021/04/12 19:16:24;;;;;;;0.07;0.07;;;;;;;;;;5037102;28;20207;-53
2021/04/12 19:19:09;;;;;;;0.50;0.50;;;;;;;;;;5031592;28;20237;-47
2021/04/12 19:21:49;;;;;;;1.60;0.57;;;;;;;;;;5038234;28;20187;-53
2021/04/12 19:24:20;;;;;;;0.60;0.60;;;;;;;;;;5036774;28;20481;-49
2021/04/12 19:26:58;;;;;;;0.33;0.33;;;;;;;;;;5038231;28;20192;-52
2021/04/12 19:29:27;;;;;;;0.27;0.27;;;;;;;;;;5044435;28;20250;-48
2021/04/12 19:32:12;;;;;;;0.90;0.30;;;;;;;;;;5034330;28;20253;-49
2021/04/12 19:34:57;;;;;;;0.00;0.00;;;;;;;;;;5032923;28;20192;-50
2021/04/12 19:37:26;;;;;;;0.10;0.10;;;;;;;;;;5034181;28;20303;-51
2021/04/12 19:40:22;;;;;;;0.53;0.53;;;;;;;;;;5035876;28;20188;-50
2021/04/12 19:43:02;;;;;;;0.20;0.20;;;;;;;;;;5029639;28;20312;-53
2021/04/12 19:45:35;;;;;;;0.20;0.20;;;;;;;;;;5038198;28;20194;-49
2021/04/12 19:48:16;;;;;;;0.73;0.73;;;;;;;;;;5037551;28;20195;-52
2021/04/12 19:50:45;;;;;;;1.13;1.03;;;;;;;;;;5038482;28;20195;-49
2021/04/12 19:53:18;;;;;;;2.63;0.83;;;;;;;;;;5025480;28;20188;-54
2021/04/12 19:55:45;;;;;;;0.30;0.10;;;;;;;;;;5032589;28;20797;-53
2021/04/12 19:58:23;;;;;;;0.63;0.57;;;;;;;;;;5030334;28;20663;-52
2021/04/12 20:00:52;;;;;;;1.20;0.73;;;;;;;;;;5037188;28;20590;-53
2021/04/12 20:03:30;;;;;;;0.80;0.80;;;;;;;;;;5035791;28;20203;-53
2021/04/12 20:06:00;;;;;;;0.70;0.70;;;;;;;;;;5039415;28;20429;-51
2021/04/12 20:08:44;;;;;;;0.00;0.00;;;;;;;;;;5034761;28;20183;-54
2021/04/12 20:11:10;;;;;;;1.73;0.40;;;;;;;;;;5035666;28;20192;-52
2021/04/12 20:13:52;;;;;;;0.33;0.33;;;;;;;;;;5037342;28;20287;-50
2021/04/12 20:16:34;;;;;;;0.47;0.47;;;;;;;;;;5033531;28;20678;-52
2021/04/12 20:19:19;;;;;;;0.30;0.30;;;;;;;;;;5031176;28;20197;-53
2021/04/12 20:21:48;;;;;;;0.40;0.40;;;;;;;;;;5032335;28;20183;-52
2021/04/12 20:24:33;;;;;;;0.37;0.20;;;;;;;;;;5035871;28;20193;-53
2021/04/12 20:27:05;;;;;;;0.67;0.40;;;;;;;;;;5031855;28;20194;-52
2021/04/12 20:29:35;;;;;;;0.10;0.10;;;;;;;;;;5034980;28;20187;-49
2021/04/12 20:32:17;;;;;;;0.10;0.10;;;;;;;;;;5025359;28;20268;-52
2021/04/12 20:34:59;;;;;;;0.50;0.43;;;;;;;;;;5027813;28;20273;-52
2021/04/12 20:37:28;;;;;;;0.87;0.77;;;;;;;;;;5036504;28;20185;-59
2021/04/12 20:40:03;;;;;;;0.53;0.20;;;;;;;;;;5035122;28;20298;-56
2021/04/12 20:42:36;;;;;;;0.37;0.37;;;;;;;;;;5037700;28;20429;-58
2021/04/12 20:45:08;;;;;;;0.00;0.00;;;;;;;;;;5039285;28;20542;-58
2021/04/12 20:47:53;;;;;;;0.37;0.37;;;;;;;;;;5038739;28;20490;-56
2021/04/12 20:50:28;;;;;;;0.30;0.30;;;;;;;;;;5033741;28;21087;-57
2021/04/12 20:53:01;;;;;;;0.50;0.30;;;;;;;;;;5038175;28;20188;-57
2021/04/12 20:55:45;;;;;;;1.13;1.07;;;;;;;;;;5031377;28;20240;-57
2021/04/12 20:58:14;;;;;;;1.50;0.63;;;;;;;;;;5038713;28;20213;-56
2021/04/12 21:00:43;;;;;;;0.57;0.47;;;;;;;;;;5038766;28;20191;-51
2021/04/12 21:03:26;;;;;;;0.27;0.27;;;;;;;;;;5038738;28;20294;-50
2021/04/12 21:05:53;;;;;;;0.00;0.00;;;;;;;;;;5036233;28;20197;-52
2021/04/12 21:08:32;;;;;;;0.13;0.13;;;;;;;;;;5038660;28;20474;-46
2021/04/12 21:11:21;;;;;;;0.10;0.10;;;;;;;;;;5038678;28;20196;-48
2021/04/12 21:13:52;;;;;;;0.13;0.10;;;;;;;;;;5034267;28;20207;-51
2021/04/12 21:16:29;;;;;;;0.10;0.10;;;;;;;;;;5038500;28;20290;-55
2021/04/12 21:19:04;;;;;;;0.00;0.00;;;;;;;;;;5042789;28;20325;-52
2021/04/12 21:21:31;;;;;;;0.50;0.37;;;;;;;;;;5042432;28;20269;-49
2021/04/12 21:24:06;;;;;;;0.50;0.20;;;;;;;;;;5041909;28;20198;-53
2021/04/12 21:26:35;;;;;;;1.40;0.97;;;;;;;;;;5035883;28;20215;-49
2021/04/12 21:29:11;;;;;;;0.00;0.00;;;;;;;;;;5035994;28;20564;-48
2021/04/12 21:31:42;;;;;;;0.13;0.07;;;;;;;;;;5037611;28;20196;-48
2021/04/12 21:34:21;;;;;;;0.20;0.20;;;;;;;;;;5041803;28;20282;-48
2021/04/12 21:36:49;;;;;;;0.57;0.17;;;;;;;;;;5044446;28;20230;-48
2021/04/12 21:39:19;;;;;;;0.20;0.10;;;;;;;;;;5042061;28;20192;-49
2021/04/12 21:41:51;;;;;;;0.00;0.00;;;;;;;;;;5042719;28;20202;-49
2021/04/12 21:44:24;;;;;;;0.20;0.20;;;;;;;;;;5042127;28;20187;-48
2021/04/12 21:46:53;;;;;;;0.00;0.00;;;;;;;;;;5042289;28;20192;-48
2021/04/12 21:49:24;;;;;;;0.17;0.17;;;;;;;;;;5042069;28;20198;-49
2021/04/12 21:52:06;;;;;;;1.43;1.00;;;;;;;;;;5040115;28;20266;-50
2021/04/12 21:54:51;;;;;;;0.00;0.00;;;;;;;;;;5033508;28;20206;-50
2021/04/12 21:57:31;;;;;;;1.20;0.27;;;;;;;;;;5026459;28;20207;-47
2021/04/12 22:00:20;;;;;;;0.37;0.37;;;;;;;;;;5035917;28;20216;-51
2021/04/12 22:03:07;;;;;;;0.10;0.10;;;;;;;;;;5041508;28;20272;-50
2021/04/12 22:05:45;;;;;;;0.10;0.10;;;;;;;;;;5030518;28;20290;-51
2021/04/12 22:08:46;;;;;;;0.00;0.00;;;;;;;;;;5042776;28;20198;-47
2021/04/12 22:11:16;;;;;;;0.00;0.00;;;;;;;;;;5018477;28;20183;-49
2021/04/12 22:14:01;;;;;;;0.00;0.00;;;;;;;;;;5026334;28;20652;-49
2021/04/12 22:16:30;;;;;;;0.00;0.00;;;;;;;;;;5041202;28;20223;-48
2021/04/12 22:19:15;;;;;;;0.10;0.10;;;;;;;;;;5031035;28;20198;-58
2021/04/12 22:25:05;;;;;;;0.00;0.00;;;;;;;;;;5002724;23;20245;-58
2021/04/12 22:27:41;;;;;;;0.00;0.00;;;;;;;;;;4998927;28;20201;-59
2021/04/12 22:30:21;;;;;;;0.00;0.00;;;;;;;;;;4993574;28;20177;-57
2021/04/12 22:33:03;;;;;;;0.00;0.00;;;;;;;;;;4995728;28;20192;-57
2021/04/12 22:41:33;;;;;;;0.03;0.00;;;;;;;;;;5001148;28;20263;-59
2021/04/12 22:44:23;;;;;;;0.20;0.20;;;;;;;;;;4997494;28;20193;-59
2021/04/12 22:47:00;;;;;;;0.50;0.50;;;;;;;;;;4980515;28;20213;-60
2021/04/12 22:49:45;;;;;;;0.20;0.20;;;;;;;;;;4994722;28;20323;-60
2021/04/12 22:52:15;;;;;;;0.50;0.50;;;;;;;;;;4992101;28;20205;-58
2021/04/12 22:55:00;;;;;;;8.50;2.73;;;;;;;;;;5002894;28;20191;-59
2021/04/12 22:57:51;;;;;;;0.50;0.50;;;;;;;;;;5009189;28;20290;-58
2021/04/12 23:00:26;;;;;;;0.47;0.30;;;;;;;;;;5005955;28;20192;-58
2021/04/12 23:02:57;;;;;;;0.50;0.37;;;;;;;;;;4997111;28;20312;-59
2021/04/12 23:05:42;;;;;;;1.70;1.60;;;;;;;;;;4997463;28;20835;-59
2021/04/12 23:08:15;;;;;;;0.43;0.37;;;;;;;;;;4995206;28;20188;-58
2021/04/12 23:10:53;;;;;;;2.63;1.40;;;;;;;;;;4994095;28;20236;-58
2021/04/12 23:13:20;;;;;;;3.00;1.50;;;;;;;;;;4998019;28;20239;-59
2021/04/12 23:15:47;;;;;;;0.03;0.03;;;;;;;;;;5009136;28;20215;-60
2021/04/12 23:18:20;;;;;;;1.07;0.97;;;;;;;;;;4986805;28;20366;-48
2021/04/12 23:20:47;;;;;;;0.33;0.33;;;;;;;;;;4996948;28;20192;-59
2021/04/12 23:23:19;;;;;;;0.60;0.50;;;;;;;;;;5000682;28;20631;-59
2021/04/12 23:25:48;;;;;;;0.30;0.30;;;;;;;;;;5000707;28;20200;-58
2021/04/12 23:28:17;;;;;;;0.03;0.03;;;;;;;;;;4997238;28;20538;-59
2021/04/12 23:30:46;;;;;;;1.40;0.80;;;;;;;;;;5004707;28;20442;-58
2021/04/12 23:33:25;;;;;;;3.43;1.60;;;;;;;;;;4997350;28;20184;-59
2021/04/12 23:35:59;;;;;;;0.00;0.00;;;;;;;;;;5003696;28;20222;-59
2021/04/12 23:38:27;;;;;;;0.00;0.00;;;;;;;;;;4997959;28;20516;-58
2021/04/12 23:41:01;;;;;;;0.20;0.20;;;;;;;;;;4990487;28;20227;-60
2021/04/12 23:43:29;;;;;;;2.07;1.70;;;;;;;;;;5004659;28;20185;-58
2021/04/12 23:46:15;;;;;;;0.47;0.47;;;;;;;;;;4995891;28;20335;-58
2021/04/12 23:48:49;;;;;;;0.00;0.00;;;;;;;;;;4993989;28;20576;-58
2021/04/12 23:51:46;;;;;;;0.00;0.00;;;;;;;;;;4997259;28;20185;-58
2021/04/12 23:54:34;;;;;;;0.00;0.00;;;;;;;;;;4988177;28;20677;-58
2021/04/12 23:57:00;;;;;;;0.00;0.00;;;;;;;;;;5003765;28;20259;-60
2021/04/12 23:59:44;;;;;;;0.33;0.33;;;;;;;;;;4997659;28;20213;-59
